sensor_id;sensor_type;location;lat;lon;timestamp;P1;durP1;ratioP1;P2;durP2;ratioP2
16727;SDS011;8482;54.396;18.590;2023-02-28T00:01:09;44.00;;;21.30;;
16727;SDS011;8482;54.396;18.590;2023-02-28T00:03:39;40.93;;;21.27;;
16727;SDS011;8482;54.396;18.590;2023-02-28T00:06:05;43.83;;;20.73;;
16727;SDS011;8482;54.396;18.590;2023-02-28T00:08:33;46.07;;;20.60;;
16727;SDS011;8482;54.396;18.590;2023-02-28T00:11:03;41.00;;;20.13;;
16727;SDS011;8482;54.396;18.590;2023-02-28T00:13:33;38.53;;;20.33;;
16727;SDS011;8482;54.396;18.590;2023-02-28T00:16:05;41.10;;;20.40;;
16727;SDS011;8482;54.396;18.590;2023-02-28T00:18:35;42.97;;;20.03;;
16727;SDS011;8482;54.396;18.590;2023-02-28T00:21:01;41.33;;;19.30;;
16727;SDS011;8482;54.396;18.590;2023-02-28T00:23:28;34.37;;;18.00;;
16727;SDS011;8482;54.396;18.590;2023-02-28T00:25:55;34.43;;;16.60;;
16727;SDS011;8482;54.396;18.590;2023-02-28T00:28:21;33.27;;;15.83;;
16727;SDS011;8482;54.396;18.590;2023-02-28T00:30:47;34.10;;;16.37;;
16727;SDS011;8482;54.396;18.590;2023-02-28T00:33:13;35.20;;;17.23;;
16727;SDS011;8482;54.396;18.590;2023-02-28T00:35:39;32.13;;;16.87;;
16727;SDS011;8482;54.396;18.590;2023-02-28T00:38:05;35.07;;;16.90;;
16727;SDS011;8482;54.396;18.590;2023-02-28T00:40:31;38.00;;;17.80;;
16727;SDS011;8482;54.396;18.590;2023-02-28T00:42:57;36.50;;;17.20;;
16727;SDS011;8482;54.396;18.590;2023-02-28T00:45:22;33.40;;;16.23;;
16727;SDS011;8482;54.396;18.590;2023-02-28T00:47:48;35.73;;;16.73;;
16727;SDS011;8482;54.396;18.590;2023-02-28T00:50:23;32.73;;;16.83;;
16727;SDS011;8482;54.396;18.590;2023-02-28T00:52:49;30.43;;;16.17;;
16727;SDS011;8482;54.396;18.590;2023-02-28T00:55:15;34.20;;;16.17;;
16727;SDS011;8482;54.396;18.590;2023-02-28T00:57:41;32.03;;;15.07;;
16727;SDS011;8482;54.396;18.590;2023-02-28T01:00:07;32.70;;;15.37;;
16727;SDS011;8482;54.396;18.590;2023-02-28T01:02:34;33.40;;;14.97;;
16727;SDS011;8482;54.396;18.590;2023-02-28T01:05:00;36.63;;;16.63;;
16727;SDS011;8482;54.396;18.590;2023-02-28T01:07:26;37.97;;;17.07;;
16727;SDS011;8482;54.396;18.590;2023-02-28T01:09:52;33.73;;;17.73;;
16727;SDS011;8482;54.396;18.590;2023-02-28T01:12:18;34.17;;;17.43;;
16727;SDS011;8482;54.396;18.590;2023-02-28T01:14:43;37.40;;;16.57;;
16727;SDS011;8482;54.396;18.590;2023-02-28T01:17:10;31.97;;;16.27;;
16727;SDS011;8482;54.396;18.590;2023-02-28T01:19:36;33.57;;;16.97;;
16727;SDS011;8482;54.396;18.590;2023-02-28T01:22:02;36.00;;;17.53;;
16727;SDS011;8482;54.396;18.590;2023-02-28T01:24:30;35.00;;;16.40;;
16727;SDS011;8482;54.396;18.590;2023-02-28T01:26:57;34.27;;;16.53;;
16727;SDS011;8482;54.396;18.590;2023-02-28T01:29:23;33.40;;;16.73;;
16727;SDS011;8482;54.396;18.590;2023-02-28T01:31:49;35.70;;;16.83;;
16727;SDS011;8482;54.396;18.590;2023-02-28T01:34:15;33.17;;;16.63;;
16727;SDS011;8482;54.396;18.590;2023-02-28T01:36:44;34.30;;;16.63;;
16727;SDS011;8482;54.396;18.590;2023-02-28T01:39:10;32.93;;;16.10;;
16727;SDS011;8482;54.396;18.590;2023-02-28T01:41:37;36.27;;;17.27;;
16727;SDS011;8482;54.396;18.590;2023-02-28T01:44:54;32.30;;;16.87;;
16727;SDS011;8482;54.396;18.590;2023-02-28T01:47:28;31.80;;;16.17;;
16727;SDS011;8482;54.396;18.590;2023-02-28T01:50:02;35.07;;;16.03;;
16727;SDS011;8482;54.396;18.590;2023-02-28T01:52:34;34.10;;;17.90;;
16727;SDS011;8482;54.396;18.590;2023-02-28T01:55:01;30.43;;;16.20;;
16727;SDS011;8482;54.396;18.590;2023-02-28T01:57:35;30.63;;;15.70;;
16727;SDS011;8482;54.396;18.590;2023-02-28T02:00:09;35.23;;;15.77;;
16727;SDS011;8482;54.396;18.590;2023-02-28T02:02:40;33.80;;;14.77;;
16727;SDS011;8482;54.396;18.590;2023-02-28T02:05:18;38.17;;;15.80;;
16727;SDS011;8482;54.396;18.590;2023-02-28T02:07:50;29.37;;;14.67;;
16727;SDS011;8482;54.396;18.590;2023-02-28T02:10:24;31.40;;;15.07;;
16727;SDS011;8482;54.396;18.590;2023-02-28T02:31:11;37.37;;;16.43;;
16727;SDS011;8482;54.396;18.590;2023-02-28T02:36:54;28.53;;;16.40;;
16727;SDS011;8482;54.396;18.590;2023-02-28T02:39:38;38.27;;;16.43;;
16727;SDS011;8482;54.396;18.590;2023-02-28T02:46:00;35.90;;;17.70;;
16727;SDS011;8482;54.396;18.590;2023-02-28T02:48:25;35.57;;;17.40;;
16727;SDS011;8482;54.396;18.590;2023-02-28T02:50:57;38.03;;;18.37;;
16727;SDS011;8482;54.396;18.590;2023-02-28T02:53:36;40.23;;;18.60;;
16727;SDS011;8482;54.396;18.590;2023-02-28T02:56:09;38.53;;;17.93;;
16727;SDS011;8482;54.396;18.590;2023-02-28T02:58:38;33.90;;;16.27;;
16727;SDS011;8482;54.396;18.590;2023-02-28T03:01:10;31.90;;;14.87;;
16727;SDS011;8482;54.396;18.590;2023-02-28T03:03:42;32.40;;;15.57;;
16727;SDS011;8482;54.396;18.590;2023-02-28T03:06:10;31.40;;;14.50;;
16727;SDS011;8482;54.396;18.590;2023-02-28T03:08:37;30.53;;;15.10;;
16727;SDS011;8482;54.396;18.590;2023-02-28T03:11:05;30.23;;;13.80;;
16727;SDS011;8482;54.396;18.590;2023-02-28T03:27:49;22.57;;;10.43;;
16727;SDS011;8482;54.396;18.590;2023-02-28T03:30:33;21.60;;;10.83;;
16727;SDS011;8482;54.396;18.590;2023-02-28T03:36:04;22.30;;;9.87;;
16727;SDS011;8482;54.396;18.590;2023-02-28T03:41:35;21.30;;;10.03;;
16727;SDS011;8482;54.396;18.590;2023-02-28T03:44:36;17.70;;;8.97;;
16727;SDS011;8482;54.396;18.590;2023-02-28T03:47:11;16.70;;;8.53;;
16727;SDS011;8482;54.396;18.590;2023-02-28T03:49:51;18.97;;;8.70;;
16727;SDS011;8482;54.396;18.590;2023-02-28T03:52:44;17.47;;;7.50;;
16727;SDS011;8482;54.396;18.590;2023-02-28T03:55:16;17.37;;;8.07;;
16727;SDS011;8482;54.396;18.590;2023-02-28T03:57:57;17.60;;;8.20;;
16727;SDS011;8482;54.396;18.590;2023-02-28T04:00:43;18.17;;;7.87;;
16727;SDS011;8482;54.396;18.590;2023-02-28T04:03:19;15.83;;;7.57;;
16727;SDS011;8482;54.396;18.590;2023-02-28T04:05:52;13.53;;;7.00;;
16727;SDS011;8482;54.396;18.590;2023-02-28T04:08:20;13.40;;;6.20;;
16727;SDS011;8482;54.396;18.590;2023-02-28T04:11:23;14.27;;;6.67;;
16727;SDS011;8482;54.396;18.590;2023-02-28T04:13:39;13.67;;;5.73;;
16727;SDS011;8482;54.396;18.590;2023-02-28T04:16:08;13.77;;;5.90;;
16727;SDS011;8482;54.396;18.590;2023-02-28T04:18:37;13.20;;;6.37;;
16727;SDS011;8482;54.396;18.590;2023-02-28T04:21:10;12.77;;;5.43;;
16727;SDS011;8482;54.396;18.590;2023-02-28T04:23:36;12.67;;;5.90;;
16727;SDS011;8482;54.396;18.590;2023-02-28T04:26:03;13.57;;;6.30;;
16727;SDS011;8482;54.396;18.590;2023-02-28T04:28:30;12.40;;;5.20;;
16727;SDS011;8482;54.396;18.590;2023-02-28T04:30:57;13.40;;;5.70;;
16727;SDS011;8482;54.396;18.590;2023-02-28T04:33:30;12.63;;;5.20;;
16727;SDS011;8482;54.396;18.590;2023-02-28T04:36:01;12.20;;;5.20;;
16727;SDS011;8482;54.396;18.590;2023-02-28T04:38:34;12.67;;;5.40;;
16727;SDS011;8482;54.396;18.590;2023-02-28T04:41:02;11.27;;;5.33;;
16727;SDS011;8482;54.396;18.590;2023-02-28T04:43:30;11.03;;;5.43;;
16727;SDS011;8482;54.396;18.590;2023-02-28T04:45:56;11.17;;;5.03;;
16727;SDS011;8482;54.396;18.590;2023-02-28T04:48:30;10.20;;;5.50;;
16727;SDS011;8482;54.396;18.590;2023-02-28T04:51:01;11.57;;;5.20;;
16727;SDS011;8482;54.396;18.590;2023-02-28T04:53:34;11.03;;;4.63;;
16727;SDS011;8482;54.396;18.590;2023-02-28T04:56:02;13.03;;;4.87;;
16727;SDS011;8482;54.396;18.590;2023-02-28T04:58:29;11.20;;;4.83;;
16727;SDS011;8482;54.396;18.590;2023-02-28T05:01:00;9.93;;;4.27;;
16727;SDS011;8482;54.396;18.590;2023-02-28T05:03:48;10.93;;;4.93;;
16727;SDS011;8482;54.396;18.590;2023-02-28T05:06:16;11.57;;;4.87;;
16727;SDS011;8482;54.396;18.590;2023-02-28T05:08:43;11.73;;;5.50;;
16727;SDS011;8482;54.396;18.590;2023-02-28T05:11:17;10.83;;;4.83;;
16727;SDS011;8482;54.396;18.590;2023-02-28T05:13:49;11.33;;;5.20;;
16727;SDS011;8482;54.396;18.590;2023-02-28T05:16:17;11.70;;;4.60;;
16727;SDS011;8482;54.396;18.590;2023-02-28T05:18:43;11.67;;;4.63;;
16727;SDS011;8482;54.396;18.590;2023-02-28T05:21:29;10.60;;;4.67;;
16727;SDS011;8482;54.396;18.590;2023-02-28T05:24:00;8.87;;;4.07;;
16727;SDS011;8482;54.396;18.590;2023-02-28T05:26:30;9.43;;;4.00;;
16727;SDS011;8482;54.396;18.590;2023-02-28T05:28:59;9.97;;;4.00;;
16727;SDS011;8482;54.396;18.590;2023-02-28T05:31:24;7.10;;;3.53;;
16727;SDS011;8482;54.396;18.590;2023-02-28T05:33:50;8.90;;;4.03;;
16727;SDS011;8482;54.396;18.590;2023-02-28T05:36:17;8.27;;;3.60;;
16727;SDS011;8482;54.396;18.590;2023-02-28T05:38:45;10.37;;;4.33;;
16727;SDS011;8482;54.396;18.590;2023-02-28T05:41:13;8.70;;;3.97;;
16727;SDS011;8482;54.396;18.590;2023-02-28T05:43:39;9.10;;;3.60;;
16727;SDS011;8482;54.396;18.590;2023-02-28T05:46:06;10.37;;;4.57;;
16727;SDS011;8482;54.396;18.590;2023-02-28T05:48:35;8.17;;;3.67;;
16727;SDS011;8482;54.396;18.590;2023-02-28T05:51:03;10.20;;;4.00;;
16727;SDS011;8482;54.396;18.590;2023-02-28T05:53:31;11.53;;;4.43;;
16727;SDS011;8482;54.396;18.590;2023-02-28T05:55:58;9.87;;;4.53;;
16727;SDS011;8482;54.396;18.590;2023-02-28T05:58:25;11.60;;;5.07;;
16727;SDS011;8482;54.396;18.590;2023-02-28T06:00:55;10.73;;;4.93;;
16727;SDS011;8482;54.396;18.590;2023-02-28T06:03:23;9.70;;;4.67;;
16727;SDS011;8482;54.396;18.590;2023-02-28T06:05:49;10.10;;;4.73;;
16727;SDS011;8482;54.396;18.590;2023-02-28T06:08:15;9.67;;;4.30;;
16727;SDS011;8482;54.396;18.590;2023-02-28T06:10:41;9.20;;;4.17;;
16727;SDS011;8482;54.396;18.590;2023-02-28T06:13:07;7.93;;;4.33;;
16727;SDS011;8482;54.396;18.590;2023-02-28T06:15:33;9.03;;;4.57;;
16727;SDS011;8482;54.396;18.590;2023-02-28T06:17:59;11.70;;;4.80;;
16727;SDS011;8482;54.396;18.590;2023-02-28T06:20:29;10.50;;;3.90;;
16727;SDS011;8482;54.396;18.590;2023-02-28T06:22:56;8.60;;;3.90;;
16727;SDS011;8482;54.396;18.590;2023-02-28T06:25:26;10.47;;;3.80;;
16727;SDS011;8482;54.396;18.590;2023-02-28T06:27:53;9.23;;;3.60;;
16727;SDS011;8482;54.396;18.590;2023-02-28T06:30:20;9.93;;;4.27;;
16727;SDS011;8482;54.396;18.590;2023-02-28T06:32:50;9.97;;;3.67;;
16727;SDS011;8482;54.396;18.590;2023-02-28T06:35:16;7.17;;;3.00;;
16727;SDS011;8482;54.396;18.590;2023-02-28T06:37:42;7.07;;;3.30;;
16727;SDS011;8482;54.396;18.590;2023-02-28T06:40:09;8.17;;;3.23;;
16727;SDS011;8482;54.396;18.590;2023-02-28T06:42:36;9.73;;;3.57;;
16727;SDS011;8482;54.396;18.590;2023-02-28T06:45:02;7.70;;;3.27;;
16727;SDS011;8482;54.396;18.590;2023-02-28T06:47:34;6.53;;;2.83;;
16727;SDS011;8482;54.396;18.590;2023-02-28T06:50:01;6.97;;;3.40;;
16727;SDS011;8482;54.396;18.590;2023-02-28T06:52:29;7.30;;;2.87;;
16727;SDS011;8482;54.396;18.590;2023-02-28T06:54:55;6.40;;;2.80;;
16727;SDS011;8482;54.396;18.590;2023-02-28T06:57:28;9.23;;;2.90;;
16727;SDS011;8482;54.396;18.590;2023-02-28T06:59:56;5.90;;;2.87;;
16727;SDS011;8482;54.396;18.590;2023-02-28T07:02:28;7.73;;;3.53;;
16727;SDS011;8482;54.396;18.590;2023-02-28T07:04:54;5.67;;;2.50;;
16727;SDS011;8482;54.396;18.590;2023-02-28T07:07:20;5.93;;;3.03;;
16727;SDS011;8482;54.396;18.590;2023-02-28T07:09:46;9.33;;;3.27;;
16727;SDS011;8482;54.396;18.590;2023-02-28T07:12:11;7.83;;;3.30;;
16727;SDS011;8482;54.396;18.590;2023-02-28T07:14:37;7.13;;;3.50;;
16727;SDS011;8482;54.396;18.590;2023-02-28T07:17:03;7.17;;;3.57;;
16727;SDS011;8482;54.396;18.590;2023-02-28T07:19:32;9.10;;;3.40;;
16727;SDS011;8482;54.396;18.590;2023-02-28T07:21:58;8.83;;;3.47;;
16727;SDS011;8482;54.396;18.590;2023-02-28T07:24:24;8.40;;;3.97;;
16727;SDS011;8482;54.396;18.590;2023-02-28T07:26:53;9.07;;;4.40;;
16727;SDS011;8482;54.396;18.590;2023-02-28T07:29:19;8.97;;;4.50;;
16727;SDS011;8482;54.396;18.590;2023-02-28T07:31:44;9.50;;;4.13;;
16727;SDS011;8482;54.396;18.590;2023-02-28T07:34:11;9.70;;;4.77;;
16727;SDS011;8482;54.396;18.590;2023-02-28T07:36:38;9.97;;;4.30;;
16727;SDS011;8482;54.396;18.590;2023-02-28T07:39:04;11.27;;;4.40;;
16727;SDS011;8482;54.396;18.590;2023-02-28T07:41:30;8.63;;;3.87;;
16727;SDS011;8482;54.396;18.590;2023-02-28T07:43:59;8.80;;;4.20;;
16727;SDS011;8482;54.396;18.590;2023-02-28T07:46:25;9.30;;;4.00;;
16727;SDS011;8482;54.396;18.590;2023-02-28T07:48:51;9.47;;;4.30;;
16727;SDS011;8482;54.396;18.590;2023-02-28T07:51:18;9.63;;;4.10;;
16727;SDS011;8482;54.396;18.590;2023-02-28T07:53:44;7.90;;;3.33;;
16727;SDS011;8482;54.396;18.590;2023-02-28T07:56:10;7.57;;;3.87;;
16727;SDS011;8482;54.396;18.590;2023-02-28T07:58:36;8.10;;;4.17;;
16727;SDS011;8482;54.396;18.590;2023-02-28T08:01:09;8.97;;;3.67;;
16727;SDS011;8482;54.396;18.590;2023-02-28T08:03:36;9.20;;;3.77;;
16727;SDS011;8482;54.396;18.590;2023-02-28T08:06:04;9.10;;;3.57;;
16727;SDS011;8482;54.396;18.590;2023-02-28T08:08:32;7.50;;;3.47;;
16727;SDS011;8482;54.396;18.590;2023-02-28T08:11:00;6.57;;;3.13;;
16727;SDS011;8482;54.396;18.590;2023-02-28T08:13:28;10.47;;;3.93;;
16727;SDS011;8482;54.396;18.590;2023-02-28T08:15:55;7.30;;;3.20;;
16727;SDS011;8482;54.396;18.590;2023-02-28T08:18:22;8.83;;;3.77;;
16727;SDS011;8482;54.396;18.590;2023-02-28T08:20:49;7.83;;;3.30;;
16727;SDS011;8482;54.396;18.590;2023-02-28T08:23:14;8.77;;;3.10;;
16727;SDS011;8482;54.396;18.590;2023-02-28T08:25:40;7.80;;;3.37;;
16727;SDS011;8482;54.396;18.590;2023-02-28T08:28:06;9.67;;;3.97;;
16727;SDS011;8482;54.396;18.590;2023-02-28T08:30:32;7.17;;;3.23;;
16727;SDS011;8482;54.396;18.590;2023-02-28T08:32:58;9.67;;;3.27;;
16727;SDS011;8482;54.396;18.590;2023-02-28T08:35:24;8.00;;;3.47;;
16727;SDS011;8482;54.396;18.590;2023-02-28T08:37:49;7.10;;;3.50;;
16727;SDS011;8482;54.396;18.590;2023-02-28T08:40:16;10.13;;;3.97;;
16727;SDS011;8482;54.396;18.590;2023-02-28T08:42:45;9.47;;;3.87;;
16727;SDS011;8482;54.396;18.590;2023-02-28T08:45:13;9.03;;;3.30;;
16727;SDS011;8482;54.396;18.590;2023-02-28T08:47:39;8.37;;;3.90;;
16727;SDS011;8482;54.396;18.590;2023-02-28T08:50:06;8.10;;;3.97;;
16727;SDS011;8482;54.396;18.590;2023-02-28T08:52:33;9.23;;;4.53;;
16727;SDS011;8482;54.396;18.590;2023-02-28T08:54:59;9.10;;;4.10;;
16727;SDS011;8482;54.396;18.590;2023-02-28T08:57:25;10.77;;;4.30;;
16727;SDS011;8482;54.396;18.590;2023-02-28T08:59:53;8.23;;;3.87;;
16727;SDS011;8482;54.396;18.590;2023-02-28T09:02:19;9.67;;;4.17;;
16727;SDS011;8482;54.396;18.590;2023-02-28T09:04:45;10.87;;;4.70;;
16727;SDS011;8482;54.396;18.590;2023-02-28T09:07:11;10.37;;;5.10;;
16727;SDS011;8482;54.396;18.590;2023-02-28T09:09:37;10.33;;;4.80;;
16727;SDS011;8482;54.396;18.590;2023-02-28T09:12:18;12.00;;;5.17;;
16727;SDS011;8482;54.396;18.590;2023-02-28T09:14:48;12.83;;;5.23;;
16727;SDS011;8482;54.396;18.590;2023-02-28T09:17:14;9.30;;;5.17;;
16727;SDS011;8482;54.396;18.590;2023-02-28T09:19:40;11.20;;;5.13;;
16727;SDS011;8482;54.396;18.590;2023-02-28T09:22:06;13.20;;;5.20;;
16727;SDS011;8482;54.396;18.590;2023-02-28T09:24:32;10.77;;;5.07;;
16727;SDS011;8482;54.396;18.590;2023-02-28T09:26:57;10.80;;;5.37;;
16727;SDS011;8482;54.396;18.590;2023-02-28T09:29:23;11.70;;;4.97;;
16727;SDS011;8482;54.396;18.590;2023-02-28T09:31:49;11.23;;;5.27;;
16727;SDS011;8482;54.396;18.590;2023-02-28T09:34:15;9.50;;;4.50;;
16727;SDS011;8482;54.396;18.590;2023-02-28T09:36:42;9.43;;;4.60;;
16727;SDS011;8482;54.396;18.590;2023-02-28T09:39:08;8.83;;;4.27;;
16727;SDS011;8482;54.396;18.590;2023-02-28T09:41:39;10.37;;;4.17;;
16727;SDS011;8482;54.396;18.590;2023-02-28T09:44:24;11.20;;;4.93;;
16727;SDS011;8482;54.396;18.590;2023-02-28T09:47:45;9.87;;;4.30;;
16727;SDS011;8482;54.396;18.590;2023-02-28T09:52:59;9.43;;;4.20;;
16727;SDS011;8482;54.396;18.590;2023-02-28T09:55:39;9.13;;;4.00;;
16727;SDS011;8482;54.396;18.590;2023-02-28T09:58:26;8.33;;;3.90;;
16727;SDS011;8482;54.396;18.590;2023-02-28T10:01:21;9.00;;;3.63;;
16727;SDS011;8482;54.396;18.590;2023-02-28T10:10:34;10.93;;;3.93;;
16727;SDS011;8482;54.396;18.590;2023-02-28T10:13:25;8.73;;;3.13;;
16727;SDS011;8482;54.396;18.590;2023-02-28T10:16:08;6.77;;;2.90;;
16727;SDS011;8482;54.396;18.590;2023-02-28T10:18:43;8.40;;;3.43;;
16727;SDS011;8482;54.396;18.590;2023-02-28T10:21:28;8.53;;;3.50;;
16727;SDS011;8482;54.396;18.590;2023-02-28T10:24:18;5.83;;;2.83;;
16727;SDS011;8482;54.396;18.590;2023-02-28T10:27:01;6.30;;;3.40;;
16727;SDS011;8482;54.396;18.590;2023-02-28T10:29:45;6.17;;;2.90;;
16727;SDS011;8482;54.396;18.590;2023-02-28T10:32:33;7.23;;;2.80;;
16727;SDS011;8482;54.396;18.590;2023-02-28T10:37:38;6.30;;;2.90;;
16727;SDS011;8482;54.396;18.590;2023-02-28T10:42:42;6.47;;;2.73;;
16727;SDS011;8482;54.396;18.590;2023-02-28T10:45:20;7.97;;;2.70;;
16727;SDS011;8482;54.396;18.590;2023-02-28T10:50:32;7.17;;;3.00;;
16727;SDS011;8482;54.396;18.590;2023-02-28T11:06:42;5.50;;;2.43;;
16727;SDS011;8482;54.396;18.590;2023-02-28T11:09:18;5.43;;;2.40;;
16727;SDS011;8482;54.396;18.590;2023-02-28T11:11:58;7.45;;;3.17;;
16727;SDS011;8482;54.396;18.590;2023-02-28T11:14:29;7.73;;;3.33;;
16727;SDS011;8482;54.396;18.590;2023-02-28T11:17:14;6.82;;;2.35;;
16727;SDS011;8482;54.396;18.590;2023-02-28T11:20:05;6.32;;;2.30;;
16727;SDS011;8482;54.396;18.590;2023-02-28T11:22:44;6.28;;;2.50;;
16727;SDS011;8482;54.396;18.590;2023-02-28T11:25:21;5.90;;;2.28;;
16727;SDS011;8482;54.396;18.590;2023-02-28T11:27:59;6.43;;;2.70;;
16727;SDS011;8482;54.396;18.590;2023-02-28T11:36:19;4.85;;;2.13;;
16727;SDS011;8482;54.396;18.590;2023-02-28T11:38:54;6.00;;;2.20;;
16727;SDS011;8482;54.396;18.590;2023-02-28T11:41:38;5.20;;;2.08;;
16727;SDS011;8482;54.396;18.590;2023-02-28T11:44:35;5.97;;;1.73;;
16727;SDS011;8482;54.396;18.590;2023-02-28T11:47:38;5.05;;;2.05;;
16727;SDS011;8482;54.396;18.590;2023-02-28T12:02:29;5.90;;;1.83;;
16727;SDS011;8482;54.396;18.590;2023-02-28T12:05:44;6.85;;;2.22;;
16727;SDS011;8482;54.396;18.590;2023-02-28T12:11:40;4.20;;;1.90;;
16727;SDS011;8482;54.396;18.590;2023-02-28T12:14:27;5.85;;;2.20;;
16727;SDS011;8482;54.396;18.590;2023-02-28T12:25:37;6.32;;;3.85;;
16727;SDS011;8482;54.396;18.590;2023-02-28T12:29:04;5.13;;;2.30;;
16727;SDS011;8482;54.396;18.590;2023-02-28T12:37:43;3.00;;;1.60;;
16727;SDS011;8482;54.396;18.590;2023-02-28T12:40:21;5.68;;;1.95;;
16727;SDS011;8482;54.396;18.590;2023-02-28T12:42:52;4.50;;;1.88;;
16727;SDS011;8482;54.396;18.590;2023-02-28T12:45:39;4.70;;;1.65;;
16727;SDS011;8482;54.396;18.590;2023-02-28T12:48:14;5.07;;;1.85;;
16727;SDS011;8482;54.396;18.590;2023-02-28T12:51:10;3.65;;;1.48;;
16727;SDS011;8482;54.396;18.590;2023-02-28T12:56:45;3.85;;;1.38;;
16727;SDS011;8482;54.396;18.590;2023-02-28T12:59:32;2.88;;;1.50;;
16727;SDS011;8482;54.396;18.590;2023-02-28T13:02:33;2.38;;;1.30;;
16727;SDS011;8482;54.396;18.590;2023-02-28T13:11:28;3.55;;;1.27;;
16727;SDS011;8482;54.396;18.590;2023-02-28T13:19:34;4.78;;;1.80;;
16727;SDS011;8482;54.396;18.590;2023-02-28T13:22:10;3.70;;;1.60;;
16727;SDS011;8482;54.396;18.590;2023-02-28T13:27:50;4.55;;;2.13;;
16727;SDS011;8482;54.396;18.590;2023-02-28T13:38:46;3.78;;;1.50;;
16727;SDS011;8482;54.396;18.590;2023-02-28T13:44:02;4.75;;;1.88;;
16727;SDS011;8482;54.396;18.590;2023-02-28T13:49:23;5.82;;;2.20;;
16727;SDS011;8482;54.396;18.590;2023-02-28T14:06:25;5.30;;;2.25;;
16727;SDS011;8482;54.396;18.590;2023-02-28T14:11:51;6.72;;;2.60;;
16727;SDS011;8482;54.396;18.590;2023-02-28T14:15:23;5.28;;;2.10;;
16727;SDS011;8482;54.396;18.590;2023-02-28T14:17:14;5.32;;;2.40;;
16727;SDS011;8482;54.396;18.590;2023-02-28T14:19:45;5.28;;;2.38;;
16727;SDS011;8482;54.396;18.590;2023-02-28T14:25:36;5.18;;;2.90;;
16727;SDS011;8482;54.396;18.590;2023-02-28T14:31:17;6.43;;;2.92;;
16727;SDS011;8482;54.396;18.590;2023-02-28T14:34:03;6.38;;;3.10;;
16727;SDS011;8482;54.396;18.590;2023-02-28T14:36:49;7.38;;;3.20;;
16727;SDS011;8482;54.396;18.590;2023-02-28T14:39:20;6.15;;;2.80;;
16727;SDS011;8482;54.396;18.590;2023-02-28T14:41:50;7.22;;;3.38;;
16727;SDS011;8482;54.396;18.590;2023-02-28T14:46:52;6.90;;;2.95;;
16727;SDS011;8482;54.396;18.590;2023-02-28T14:49:32;9.55;;;3.88;;
16727;SDS011;8482;54.396;18.590;2023-02-28T14:52:14;7.22;;;3.30;;
16727;SDS011;8482;54.396;18.590;2023-02-28T14:54:46;5.95;;;3.47;;
16727;SDS011;8482;54.396;18.590;2023-02-28T14:57:41;7.15;;;3.58;;
16727;SDS011;8482;54.396;18.590;2023-02-28T15:00:28;6.10;;;3.35;;
16727;SDS011;8482;54.396;18.590;2023-02-28T15:03:17;7.00;;;3.42;;
16727;SDS011;8482;54.396;18.590;2023-02-28T15:06:14;6.68;;;3.20;;
16727;SDS011;8482;54.396;18.590;2023-02-28T15:08:43;7.47;;;3.45;;
16727;SDS011;8482;54.396;18.590;2023-02-28T15:11:14;6.20;;;2.90;;
16727;SDS011;8482;54.396;18.590;2023-02-28T15:13:51;5.70;;;3.10;;
16727;SDS011;8482;54.396;18.590;2023-02-28T15:18:55;6.47;;;3.03;;
16727;SDS011;8482;54.396;18.590;2023-02-28T15:21:24;7.35;;;3.10;;
16727;SDS011;8482;54.396;18.590;2023-02-28T15:23:59;7.88;;;2.78;;
16727;SDS011;8482;54.396;18.590;2023-02-28T15:26:31;6.15;;;3.28;;
16727;SDS011;8482;54.396;18.590;2023-02-28T15:29:08;7.25;;;2.95;;
16727;SDS011;8482;54.396;18.590;2023-02-28T15:37:25;6.15;;;2.65;;
16727;SDS011;8482;54.396;18.590;2023-02-28T15:40:03;6.47;;;2.90;;
16727;SDS011;8482;54.396;18.590;2023-02-28T15:43:06;6.65;;;2.80;;
16727;SDS011;8482;54.396;18.590;2023-02-28T15:48:35;6.10;;;2.75;;
16727;SDS011;8482;54.396;18.590;2023-02-28T15:51:19;6.85;;;2.92;;
16727;SDS011;8482;54.396;18.590;2023-02-28T15:54:00;6.88;;;3.05;;
16727;SDS011;8482;54.396;18.590;2023-02-28T15:56:52;7.13;;;3.33;;
16727;SDS011;8482;54.396;18.590;2023-02-28T15:59:23;7.20;;;2.92;;
16727;SDS011;8482;54.396;18.590;2023-02-28T16:07:31;7.10;;;3.35;;
16727;SDS011;8482;54.396;18.590;2023-02-28T16:10:02;8.80;;;3.60;;
16727;SDS011;8482;54.396;18.590;2023-02-28T16:12:30;8.25;;;3.60;;
16727;SDS011;8482;54.396;18.590;2023-02-28T16:15:00;6.75;;;3.65;;
16727;SDS011;8482;54.396;18.590;2023-02-28T16:17:33;8.15;;;3.03;;
16727;SDS011;8482;54.396;18.590;2023-02-28T16:20:13;7.47;;;3.08;;
16727;SDS011;8482;54.396;18.590;2023-02-28T16:22:51;7.15;;;3.45;;
16727;SDS011;8482;54.396;18.590;2023-02-28T16:25:19;7.03;;;3.10;;
16727;SDS011;8482;54.396;18.590;2023-02-28T16:27:50;7.57;;;3.00;;
16727;SDS011;8482;54.396;18.590;2023-02-28T16:30:20;8.30;;;3.30;;
16727;SDS011;8482;54.396;18.590;2023-02-28T16:32:51;7.93;;;3.30;;
16727;SDS011;8482;54.396;18.590;2023-02-28T16:35:20;7.68;;;3.35;;
16727;SDS011;8482;54.396;18.590;2023-02-28T16:37:47;8.68;;;3.55;;
16727;SDS011;8482;54.396;18.590;2023-02-28T16:40:16;8.63;;;3.20;;
16727;SDS011;8482;54.396;18.590;2023-02-28T16:42:50;8.63;;;3.58;;
16727;SDS011;8482;54.396;18.590;2023-02-28T16:45:22;9.40;;;3.80;;
16727;SDS011;8482;54.396;18.590;2023-02-28T16:47:51;9.87;;;3.53;;
16727;SDS011;8482;54.396;18.590;2023-02-28T16:50:27;9.17;;;3.73;;
16727;SDS011;8482;54.396;18.590;2023-02-28T16:52:55;8.83;;;3.80;;
16727;SDS011;8482;54.396;18.590;2023-02-28T16:55:22;9.60;;;3.67;;
16727;SDS011;8482;54.396;18.590;2023-02-28T16:57:51;7.77;;;3.50;;
16727;SDS011;8482;54.396;18.590;2023-02-28T17:00:23;10.20;;;3.60;;
16727;SDS011;8482;54.396;18.590;2023-02-28T17:02:52;10.57;;;5.10;;
16727;SDS011;8482;54.396;18.590;2023-02-28T17:05:18;10.23;;;3.77;;
16727;SDS011;8482;54.396;18.590;2023-02-28T17:07:45;8.00;;;3.40;;
16727;SDS011;8482;54.396;18.590;2023-02-28T17:10:13;8.13;;;3.50;;
16727;SDS011;8482;54.396;18.590;2023-02-28T17:12:46;9.17;;;4.33;;
16727;SDS011;8482;54.396;18.590;2023-02-28T17:15:13;11.00;;;4.17;;
16727;SDS011;8482;54.396;18.590;2023-02-28T17:17:42;10.07;;;4.37;;
16727;SDS011;8482;54.396;18.590;2023-02-28T17:20:13;10.60;;;4.57;;
16727;SDS011;8482;54.396;18.590;2023-02-28T17:22:48;11.00;;;4.23;;
16727;SDS011;8482;54.396;18.590;2023-02-28T17:25:17;10.97;;;4.60;;
16727;SDS011;8482;54.396;18.590;2023-02-28T17:27:43;11.77;;;5.43;;
16727;SDS011;8482;54.396;18.590;2023-02-28T17:30:12;11.93;;;5.17;;
16727;SDS011;8482;54.396;18.590;2023-02-28T17:32:52;10.90;;;5.10;;
16727;SDS011;8482;54.396;18.590;2023-02-28T17:35:22;11.27;;;5.33;;
16727;SDS011;8482;54.396;18.590;2023-02-28T17:37:49;13.53;;;5.83;;
16727;SDS011;8482;54.396;18.590;2023-02-28T17:40:15;11.80;;;5.30;;
16727;SDS011;8482;54.396;18.590;2023-02-28T17:42:44;16.03;;;6.27;;
16727;SDS011;8482;54.396;18.590;2023-02-28T17:45:11;15.60;;;5.63;;
16727;SDS011;8482;54.396;18.590;2023-02-28T17:47:39;12.47;;;5.60;;
16727;SDS011;8482;54.396;18.590;2023-02-28T17:50:15;10.17;;;5.03;;
16727;SDS011;8482;54.396;18.590;2023-02-28T17:52:44;11.73;;;5.07;;
16727;SDS011;8482;54.396;18.590;2023-02-28T17:55:11;14.40;;;5.83;;
16727;SDS011;8482;54.396;18.590;2023-02-28T17:57:37;14.13;;;5.93;;
16727;SDS011;8482;54.396;18.590;2023-02-28T18:00:04;13.63;;;5.80;;
16727;SDS011;8482;54.396;18.590;2023-02-28T18:02:32;13.33;;;5.47;;
16727;SDS011;8482;54.396;18.590;2023-02-28T18:04:58;11.37;;;5.13;;
16727;SDS011;8482;54.396;18.590;2023-02-28T18:07:24;10.47;;;4.80;;
16727;SDS011;8482;54.396;18.590;2023-02-28T18:09:50;11.43;;;5.13;;
16727;SDS011;8482;54.396;18.590;2023-02-28T18:12:16;10.63;;;4.70;;
16727;SDS011;8482;54.396;18.590;2023-02-28T18:14:42;15.03;;;5.67;;